sensor_id;sensor_type;location;lat;lon;timestamp;temperature;humidity
40622;DHT22;26324;52.040;11.528;2022-12-18T00:01:29;-3270.90;90.10
40622;DHT22;26324;52.040;11.528;2022-12-18T00:03:57;-3270.70;90.20
40622;DHT22;26324;52.040;11.528;2022-12-18T00:06:23;-3270.70;90.30
40622;DHT22;26324;52.040;11.528;2022-12-18T00:08:49;-3270.60;90.40
40622;DHT22;26324;52.040;11.528;2022-12-18T00:11:17;-3270.60;90.50
40622;DHT22;26324;52.040;11.528;2022-12-18T00:13:44;-3270.50;90.50
40622;DHT22;26324;52.040;11.528;2022-12-18T00:16:15;-3270.50;90.50
40622;DHT22;26324;52.040;11.528;2022-12-18T00:18:42;-3270.60;90.70
40622;DHT22;26324;52.040;11.528;2022-12-18T00:21:10;-3270.60;90.60
40622;DHT22;26324;52.040;11.528;2022-12-18T00:23:37;-3270.50;90.50
40622;DHT22;26324;52.040;11.528;2022-12-18T00:26:06;-3270.50;90.50
40622;DHT22;26324;52.040;11.528;2022-12-18T00:28:32;-3270.60;90.40
40622;DHT22;26324;52.040;11.528;2022-12-18T00:31:09;-3270.60;90.30
40622;DHT22;26324;52.040;11.528;2022-12-18T00:33:35;-3270.60;90.30
40622;DHT22;26324;52.040;11.528;2022-12-18T00:38:37;-3270.40;90.00
40622;DHT22;26324;52.040;11.528;2022-12-18T00:41:03;-3270.40;90.30
40622;DHT22;26324;52.040;11.528;2022-12-18T00:43:29;-3270.40;90.40
40622;DHT22;26324;52.040;11.528;2022-12-18T00:45:55;-3270.50;90.50
40622;DHT22;26324;52.040;11.528;2022-12-18T00:48:21;-3270.50;90.30
40622;DHT22;26324;52.040;11.528;2022-12-18T00:50:48;-3270.50;90.10
40622;DHT22;26324;52.040;11.528;2022-12-18T00:53:14;-3270.50;90.20
40622;DHT22;26324;52.040;11.528;2022-12-18T00:55:40;-3270.50;90.20
40622;DHT22;26324;52.040;11.528;2022-12-18T00:58:06;-3270.50;90.20
40622;DHT22;26324;52.040;11.528;2022-12-18T01:00:32;-3270.50;89.90
40622;DHT22;26324;52.040;11.528;2022-12-18T01:02:57;-3270.50;89.90
40622;DHT22;26324;52.040;11.528;2022-12-18T01:05:23;-3270.60;89.80
40622;DHT22;26324;52.040;11.528;2022-12-18T01:07:48;-3270.50;89.70
40622;DHT22;26324;52.040;11.528;2022-12-18T01:10:14;-3270.30;89.70
40622;DHT22;26324;52.040;11.528;2022-12-18T01:12:40;-3270.40;89.90
40622;DHT22;26324;52.040;11.528;2022-12-18T01:15:06;-3270.40;89.60
40622;DHT22;26324;52.040;11.528;2022-12-18T01:17:33;-3270.20;89.70
40622;DHT22;26324;52.040;11.528;2022-12-18T01:19:58;-3270.10;89.60
40622;DHT22;26324;52.040;11.528;2022-12-18T01:22:24;-3270.10;89.90
40622;DHT22;26324;52.040;11.528;2022-12-18T01:24:50;-3270.10;90.10
40622;DHT22;26324;52.040;11.528;2022-12-18T01:27:15;-3270.10;90.10
40622;DHT22;26324;52.040;11.528;2022-12-18T01:29:41;-3270.10;90.10
40622;DHT22;26324;52.040;11.528;2022-12-18T01:32:08;-3270.20;90.20
40622;DHT22;26324;52.040;11.528;2022-12-18T01:34:35;-3270.20;90.10
40622;DHT22;26324;52.040;11.528;2022-12-18T01:37:02;-3270.20;90.20
40622;DHT22;26324;52.040;11.528;2022-12-18T01:39:28;-3270.20;90.00
40622;DHT22;26324;52.040;11.528;2022-12-18T01:41:54;-3270.20;90.00
40622;DHT22;26324;52.040;11.528;2022-12-18T01:44:57;-3270.20;90.10
40622;DHT22;26324;52.040;11.528;2022-12-18T01:47:39;-3270.10;89.80
40622;DHT22;26324;52.040;11.528;2022-12-18T01:50:45;-3270.00;89.90
40622;DHT22;26324;52.040;11.528;2022-12-18T01:53:16;-3270.10;90.00
40622;DHT22;26324;52.040;11.528;2022-12-18T01:55:53;-3270.20;90.00
40622;DHT22;26324;52.040;11.528;2022-12-18T01:58:21;-3270.20;89.90
40622;DHT22;26324;52.040;11.528;2022-12-18T02:00:48;-3270.40;89.90
40622;DHT22;26324;52.040;11.528;2022-12-18T02:03:14;-3270.50;89.80
40622;DHT22;26324;52.040;11.528;2022-12-18T02:06:05;-3270.50;89.50
40622;DHT22;26324;52.040;11.528;2022-12-18T02:08:50;-3270.40;89.20
40622;DHT22;26324;52.040;11.528;2022-12-18T02:17:00;-3270.10;88.70
40622;DHT22;26324;52.040;11.528;2022-12-18T02:19:44;-3270.00;88.80
40622;DHT22;26324;52.040;11.528;2022-12-18T02:22:27;-3269.80;88.80
40622;DHT22;26324;52.040;11.528;2022-12-18T02:25:16;-3269.70;89.00
40622;DHT22;26324;52.040;11.528;2022-12-18T02:27:46;-3269.60;88.90
40622;DHT22;26324;52.040;11.528;2022-12-18T02:30:14;-3269.70;89.30
40622;DHT22;26324;52.040;11.528;2022-12-18T02:32:42;-3269.70;89.20
40622;DHT22;26324;52.040;11.528;2022-12-18T02:35:15;-3269.70;89.30
40622;DHT22;26324;52.040;11.528;2022-12-18T02:37:44;-3269.80;89.30
40622;DHT22;26324;52.040;11.528;2022-12-18T02:40:13;-3269.70;89.00
40622;DHT22;26324;52.040;11.528;2022-12-18T02:42:40;-3269.80;89.30
40622;DHT22;26324;52.040;11.528;2022-12-18T02:45:06;-3269.70;89.00
40622;DHT22;26324;52.040;11.528;2022-12-18T02:47:35;-3269.70;89.20
40622;DHT22;26324;52.040;11.528;2022-12-18T02:52:53;-3269.70;89.20
40622;DHT22;26324;52.040;11.528;2022-12-18T02:55:48;-3269.60;89.20
40622;DHT22;26324;52.040;11.528;2022-12-18T02:58:26;-3269.60;89.40
40622;DHT22;26324;52.040;11.528;2022-12-18T03:03:57;-3269.60;89.50
40622;DHT22;26324;52.040;11.528;2022-12-18T03:06:32;-3269.60;89.50
40622;DHT22;26324;52.040;11.528;2022-12-18T03:09:00;-3269.60;89.50
40622;DHT22;26324;52.040;11.528;2022-12-18T03:11:30;-3269.60;89.30
40622;DHT22;26324;52.040;11.528;2022-12-18T03:14:23;-3269.50;89.30
40622;DHT22;26324;52.040;11.528;2022-12-18T03:16:52;-3269.40;89.30
40622;DHT22;26324;52.040;11.528;2022-12-18T03:19:22;-3269.50;89.40
40622;DHT22;26324;52.040;11.528;2022-12-18T03:21:52;-3269.40;89.40
40622;DHT22;26324;52.040;11.528;2022-12-18T03:24:19;-3269.30;89.30
40622;DHT22;26324;52.040;11.528;2022-12-18T03:26:48;-3269.30;89.40
40622;DHT22;26324;52.040;11.528;2022-12-18T03:29:33;-3269.40;89.40
40622;DHT22;26324;52.040;11.528;2022-12-18T03:32:23;-3269.40;89.40
40622;DHT22;26324;52.040;11.528;2022-12-18T03:34:51;-3269.50;89.30
40622;DHT22;26324;52.040;11.528;2022-12-18T03:37:19;-3269.50;89.30
40622;DHT22;26324;52.040;11.528;2022-12-18T03:39:44;-3269.40;89.10
40622;DHT22;26324;52.040;11.528;2022-12-18T03:47:40;-3269.10;89.30
40622;DHT22;26324;52.040;11.528;2022-12-18T03:55:30;-3269.20;89.40
40622;DHT22;26324;52.040;11.528;2022-12-18T03:57:57;-3269.30;89.50
40622;DHT22;26324;52.040;11.528;2022-12-18T04:00:24;-3269.30;89.50
40622;DHT22;26324;52.040;11.528;2022-12-18T04:02:52;-3269.20;89.20
40622;DHT22;26324;52.040;11.528;2022-12-18T04:05:20;-3269.10;89.40
40622;DHT22;26324;52.040;11.528;2022-12-18T04:07:48;-3269.20;89.40
40622;DHT22;26324;52.040;11.528;2022-12-18T04:10:15;-3269.20;89.40
40622;DHT22;26324;52.040;11.528;2022-12-18T04:12:41;-3269.30;89.30
40622;DHT22;26324;52.040;11.528;2022-12-18T04:15:09;-3269.40;89.20
40622;DHT22;26324;52.040;11.528;2022-12-18T04:17:35;-3269.50;89.00
40622;DHT22;26324;52.040;11.528;2022-12-18T04:20:01;-3269.50;88.90
40622;DHT22;26324;52.040;11.528;2022-12-18T04:22:26;-3269.50;88.70
40622;DHT22;26324;52.040;11.528;2022-12-18T04:24:52;-3269.40;88.20
40622;DHT22;26324;52.040;11.528;2022-12-18T04:27:17;-3269.30;88.40
40622;DHT22;26324;52.040;11.528;2022-12-18T04:29:43;-3269.00;88.20
40622;DHT22;26324;52.040;11.528;2022-12-18T04:32:08;-3269.00;88.60
40622;DHT22;26324;52.040;11.528;2022-12-18T04:34:34;-3269.10;88.70
40622;DHT22;26324;52.040;11.528;2022-12-18T04:36:59;-3269.10;88.30
40622;DHT22;26324;52.040;11.528;2022-12-18T04:39:25;-3268.90;88.40
40622;DHT22;26324;52.040;11.528;2022-12-18T04:41:51;-3268.90;88.50
40622;DHT22;26324;52.040;11.528;2022-12-18T04:44:16;-3269.00;88.60
40622;DHT22;26324;52.040;11.528;2022-12-18T04:46:42;-3268.90;88.20
40622;DHT22;26324;52.040;11.528;2022-12-18T04:49:07;-3268.80;88.50
40622;DHT22;26324;52.040;11.528;2022-12-18T04:51:33;-3268.90;88.70
40622;DHT22;26324;52.040;11.528;2022-12-18T04:53:58;-3269.00;88.60
40622;DHT22;26324;52.040;11.528;2022-12-18T04:56:24;-3269.20;88.60
40622;DHT22;26324;52.040;11.528;2022-12-18T04:58:49;-3269.10;88.20
40622;DHT22;26324;52.040;11.528;2022-12-18T05:01:17;-3269.10;88.30
40622;DHT22;26324;52.040;11.528;2022-12-18T05:03:43;-3269.10;88.20
40622;DHT22;26324;52.040;11.528;2022-12-18T05:06:09;-3269.20;88.10
40622;DHT22;26324;52.040;11.528;2022-12-18T05:08:36;-3269.00;87.70
40622;DHT22;26324;52.040;11.528;2022-12-18T05:11:08;-3268.90;87.90
40622;DHT22;26324;52.040;11.528;2022-12-18T05:13:34;-3268.90;88.10
40622;DHT22;26324;52.040;11.528;2022-12-18T05:16:00;-3269.00;88.10
40622;DHT22;26324;52.040;11.528;2022-12-18T05:18:26;-3268.90;88.00
40622;DHT22;26324;52.040;11.528;2022-12-18T05:20:53;-3268.90;88.00
40622;DHT22;26324;52.040;11.528;2022-12-18T05:23:20;-3268.90;88.00
40622;DHT22;26324;52.040;11.528;2022-12-18T05:25:53;-3268.90;88.10
40622;DHT22;26324;52.040;11.528;2022-12-18T05:28:19;-3268.90;88.20
40622;DHT22;26324;52.040;11.528;2022-12-18T05:30:50;-3269.00;88.40
40622;DHT22;26324;52.040;11.528;2022-12-18T05:33:16;-3269.10;88.30
40622;DHT22;26324;52.040;11.528;2022-12-18T05:35:42;-3269.10;88.10
40622;DHT22;26324;52.040;11.528;2022-12-18T05:38:07;-3269.00;88.30
40622;DHT22;26324;52.040;11.528;2022-12-18T05:40:33;-3269.00;88.30
40622;DHT22;26324;52.040;11.528;2022-12-18T05:42:59;-3268.90;88.50
40622;DHT22;26324;52.040;11.528;2022-12-18T05:45:24;-3269.00;88.70
40622;DHT22;26324;52.040;11.528;2022-12-18T05:47:50;-3268.90;88.70
40622;DHT22;26324;52.040;11.528;2022-12-18T05:50:15;-3268.90;88.90
40622;DHT22;26324;52.040;11.528;2022-12-18T05:52:41;-3268.90;89.00
40622;DHT22;26324;52.040;11.528;2022-12-18T05:55:07;-3268.90;89.30
40622;DHT22;26324;52.040;11.528;2022-12-18T05:57:33;-3268.90;89.50
40622;DHT22;26324;52.040;11.528;2022-12-18T05:59:58;-3268.90;89.60
40622;DHT22;26324;52.040;11.528;2022-12-18T06:02:24;-3269.00;89.70
40622;DHT22;26324;52.040;11.528;2022-12-18T06:04:49;-3268.90;89.80
40622;DHT22;26324;52.040;11.528;2022-12-18T06:07:16;-3269.00;89.90
40622;DHT22;26324;52.040;11.528;2022-12-18T06:09:41;-3269.00;89.80
40622;DHT22;26324;52.040;11.528;2022-12-18T06:12:07;-3269.00;89.80
40622;DHT22;26324;52.040;11.528;2022-12-18T06:14:32;-3268.90;89.90
40622;DHT22;26324;52.040;11.528;2022-12-18T06:16:58;-3269.00;90.00
40622;DHT22;26324;52.040;11.528;2022-12-18T06:19:23;-3268.90;90.00
40622;DHT22;26324;52.040;11.528;2022-12-18T06:21:49;-3268.90;90.00
40622;DHT22;26324;52.040;11.528;2022-12-18T06:24:16;-3269.00;90.10
40622;DHT22;26324;52.040;11.528;2022-12-18T06:26:42;-3269.00;90.10
40622;DHT22;26324;52.040;11.528;2022-12-18T06:29:08;-3269.00;89.80
40622;DHT22;26324;52.040;11.528;2022-12-18T06:31:33;-3269.10;89.90
40622;DHT22;26324;52.040;11.528;2022-12-18T06:34:02;-3269.10;89.90
40622;DHT22;26324;52.040;11.528;2022-12-18T06:36:28;-3269.10;89.80
40622;DHT22;26324;52.040;11.528;2022-12-18T06:38:53;-3269.00;89.60
40622;DHT22;26324;52.040;11.528;2022-12-18T06:41:20;-3269.00;89.70
40622;DHT22;26324;52.040;11.528;2022-12-18T06:43:46;-3269.00;89.60
40622;DHT22;26324;52.040;11.528;2022-12-18T06:46:12;-3268.90;89.60
40622;DHT22;26324;52.040;11.528;2022-12-18T06:48:38;-3268.90;89.40
40622;DHT22;26324;52.040;11.528;2022-12-18T06:51:04;-3268.70;89.20
40622;DHT22;26324;52.040;11.528;2022-12-18T06:53:31;-3268.70;89.10
40622;DHT22;26324;52.040;11.528;2022-12-18T06:56:01;-3268.50;89.00
40622;DHT22;26324;52.040;11.528;2022-12-18T06:58:27;-3268.50;88.90
40622;DHT22;26324;52.040;11.528;2022-12-18T07:00:53;-3268.40;88.90
40622;DHT22;26324;52.040;11.528;2022-12-18T07:03:18;-3268.40;88.90
40622;DHT22;26324;52.040;11.528;2022-12-18T07:05:44;-3268.30;88.80
40622;DHT22;26324;52.040;11.528;2022-12-18T07:08:10;-3268.30;88.70
40622;DHT22;26324;52.040;11.528;2022-12-18T07:10:43;-3268.20;88.60
40622;DHT22;26324;52.040;11.528;2022-12-18T07:13:09;-3268.10;88.50
40622;DHT22;26324;52.040;11.528;2022-12-18T07:15:34;-3268.00;88.50
40622;DHT22;26324;52.040;11.528;2022-12-18T07:18:00;-3268.00;88.40
40622;DHT22;26324;52.040;11.528;2022-12-18T07:20:26;-3268.00;88.40
40622;DHT22;26324;52.040;11.528;2022-12-18T07:22:51;-3268.00;88.40
40622;DHT22;26324;52.040;11.528;2022-12-18T07:25:19;-3268.00;88.20
40622;DHT22;26324;52.040;11.528;2022-12-18T07:27:44;-3267.90;88.20
40622;DHT22;26324;52.040;11.528;2022-12-18T07:30:10;-3267.90;88.10
40622;DHT22;26324;52.040;11.528;2022-12-18T07:32:36;-3267.90;88.20
40622;DHT22;26324;52.040;11.528;2022-12-18T07:35:01;-3267.90;88.00
40622;DHT22;26324;52.040;11.528;2022-12-18T07:37:27;-3267.90;87.90
40622;DHT22;26324;52.040;11.528;2022-12-18T07:39:53;-3267.90;87.90
40622;DHT22;26324;52.040;11.528;2022-12-18T07:42:19;-3267.90;87.80
40622;DHT22;26324;52.040;11.528;2022-12-18T07:45:02;-3268.00;87.90
40622;DHT22;26324;52.040;11.528;2022-12-18T07:47:28;-3268.00;87.80
40622;DHT22;26324;52.040;11.528;2022-12-18T07:49:54;-3267.90;87.70
40622;DHT22;26324;52.040;11.528;2022-12-18T07:52:19;-3268.00;87.70
40622;DHT22;26324;52.040;11.528;2022-12-18T07:54:45;-3268.00;87.60
40622;DHT22;26324;52.040;11.528;2022-12-18T07:57:14;-3268.00;87.60
40622;DHT22;26324;52.040;11.528;2022-12-18T07:59:39;-3268.10;87.50
40622;DHT22;26324;52.040;11.528;2022-12-18T08:02:07;-3268.00;87.30
40622;DHT22;26324;52.040;11.528;2022-12-18T08:04:36;-3268.00;87.40
40622;DHT22;26324;52.040;11.528;2022-12-18T08:07:04;-3268.00;87.40
40622;DHT22;26324;52.040;11.528;2022-12-18T08:09:30;-3268.00;87.60
40622;DHT22;26324;52.040;11.528;2022-12-18T08:11:55;-3268.00;87.50
40622;DHT22;26324;52.040;11.528;2022-12-18T08:14:21;-3268.00;87.60
40622;DHT22;26324;52.040;11.528;2022-12-18T08:16:46;-3268.00;87.50
40622;DHT22;26324;52.040;11.528;2022-12-18T08:19:13;-3268.10;87.40
40622;DHT22;26324;52.040;11.528;2022-12-18T08:21:41;-3268.00;87.40
40622;DHT22;26324;52.040;11.528;2022-12-18T08:24:09;-3268.00;87.50
40622;DHT22;26324;52.040;11.528;2022-12-18T08:26:35;-3268.20;87.60
40622;DHT22;26324;52.040;11.528;2022-12-18T08:29:01;-3268.20;87.40
40622;DHT22;26324;52.040;11.528;2022-12-18T08:31:28;-3268.40;87.60
40622;DHT22;26324;52.040;11.528;2022-12-18T08:33:55;-3268.60;87.60
40622;DHT22;26324;52.040;11.528;2022-12-18T08:36:21;-3268.60;87.00
40622;DHT22;26324;52.040;11.528;2022-12-18T08:38:47;-3268.70;87.10
40622;DHT22;26324;52.040;11.528;2022-12-18T08:41:14;-3268.90;87.20
40622;DHT22;26324;52.040;11.528;2022-12-18T08:43:40;-3269.20;87.20
40622;DHT22;26324;52.040;11.528;2022-12-18T08:46:26;-3269.50;86.90
40622;DHT22;26324;52.040;11.528;2022-12-18T08:48:52;-3269.80;86.40
40622;DHT22;26324;52.040;11.528;2022-12-18T08:51:19;-3270.00;85.70
40622;DHT22;26324;52.040;11.528;2022-12-18T08:53:45;-3270.20;85.10
40622;DHT22;26324;52.040;11.528;2022-12-18T08:56:11;-3270.30;84.20
40622;DHT22;26324;52.040;11.528;2022-12-18T08:58:37;-3270.40;84.10
40622;DHT22;26324;52.040;11.528;2022-12-18T09:01:04;-3270.30;83.20
40622;DHT22;26324;52.040;11.528;2022-12-18T09:03:30;-3270.30;83.30
40622;DHT22;26324;52.040;11.528;2022-12-18T09:05:56;-3270.20;83.00
40622;DHT22;26324;52.040;11.528;2022-12-18T09:08:22;-3270.30;83.60
40622;DHT22;26324;52.040;11.528;2022-12-18T09:10:49;-3270.50;83.40
40622;DHT22;26324;52.040;11.528;2022-12-18T09:13:15;-3270.60;83.40
40622;DHT22;26324;52.040;11.528;2022-12-18T09:15:46;-3270.70;82.90
40622;DHT22;26324;52.040;11.528;2022-12-18T09:18:13;-3270.70;82.80
40622;DHT22;26324;52.040;11.528;2022-12-18T09:20:39;-3270.80;82.90
40622;DHT22;26324;52.040;11.528;2022-12-18T09:23:06;-3271.00;82.20
40622;DHT22;26324;52.040;11.528;2022-12-18T09:25:32;-3271.20;82.20
40622;DHT22;26324;52.040;11.528;2022-12-18T09:28:12;-3271.50;81.70
40622;DHT22;26324;52.040;11.528;2022-12-18T09:30:39;-3271.60;80.90
40622;DHT22;26324;52.040;11.528;2022-12-18T09:33:05;-3271.50;80.70
40622;DHT22;26324;52.040;11.528;2022-12-18T09:35:30;-3271.60;80.60
40622;DHT22;26324;52.040;11.528;2022-12-18T09:37:56;-3271.60;80.30
40622;DHT22;26324;52.040;11.528;2022-12-18T09:40:24;-3271.50;80.40
40622;DHT22;26324;52.040;11.528;2022-12-18T09:43:00;-3271.20;81.40
40622;DHT22;26324;52.040;11.528;2022-12-18T09:45:36;-3271.60;81.50
40622;DHT22;26324;52.040;11.528;2022-12-18T09:48:05;-3271.70;81.00
40622;DHT22;26324;52.040;11.528;2022-12-18T09:50:37;-3272.00;80.70
40622;DHT22;26324;52.040;11.528;2022-12-18T09:53:10;-3272.00;79.30
40622;DHT22;26324;52.040;11.528;2022-12-18T09:55:41;-3272.20;79.70
40622;DHT22;26324;52.040;11.528;2022-12-18T09:58:19;-3272.40;79.50
40622;DHT22;26324;52.040;11.528;2022-12-18T10:00:45;-3272.70;78.80
40622;DHT22;26324;52.040;11.528;2022-12-18T10:03:15;-3272.60;77.90
40622;DHT22;26324;52.040;11.528;2022-12-18T10:06:02;-3272.90;77.30
40622;DHT22;26324;52.040;11.528;2022-12-18T10:11:34;-3272.90;77.60
40622;DHT22;26324;52.040;11.528;2022-12-18T10:27:44;-3271.80;80.80
40622;DHT22;26324;52.040;11.528;2022-12-18T10:30:16;-3271.90;81.20
40622;DHT22;26324;52.040;11.528;2022-12-18T10:32:42;-3272.50;80.50
40622;DHT22;26324;52.040;11.528;2022-12-18T10:35:18;-3273.00;79.10
40622;DHT22;26324;52.040;11.528;2022-12-18T10:40:58;-3273.30;76.90
40622;DHT22;26324;52.040;11.528;2022-12-18T10:43:35;-3272.70;77.30
40622;DHT22;26324;52.040;11.528;2022-12-18T10:53:57;-3272.00;80.40
40622;DHT22;26324;52.040;11.528;2022-12-18T10:56:24;-3272.00;81.30
40622;DHT22;26324;52.040;11.528;2022-12-18T10:58:57;-3272.10;81.60
40622;DHT22;26324;52.040;11.528;2022-12-18T11:01:23;-3272.20;81.90
40622;DHT22;26324;52.040;11.528;2022-12-18T11:06:22;-3272.40;81.00
40622;DHT22;26324;52.040;11.528;2022-12-18T11:11:27;-3272.80;80.60
40622;DHT22;26324;52.040;11.528;2022-12-18T11:14:21;-3273.50;80.20
40622;DHT22;26324;52.040;11.528;2022-12-18T11:16:49;-3274.20;76.00
40622;DHT22;26324;52.040;11.528;2022-12-18T11:21:54;-3273.50;76.00
40622;DHT22;26324;52.040;11.528;2022-12-18T11:24:34;-3273.90;77.80
40622;DHT22;26324;52.040;11.528;2022-12-18T11:27:20;-3274.20;74.90
40622;DHT22;26324;52.040;11.528;2022-12-18T11:29:49;-3274.30;75.00
40622;DHT22;26324;52.040;11.528;2022-12-18T11:32:27;-3274.20;75.00
40622;DHT22;26324;52.040;11.528;2022-12-18T11:35:00;-3274.10;75.20
40622;DHT22;26324;52.040;11.528;2022-12-18T11:37:28;-3273.70;75.50
40622;DHT22;26324;52.040;11.528;2022-12-18T11:39:59;-3273.70;76.40
40622;DHT22;26324;52.040;11.528;2022-12-18T11:42:44;-3273.70;77.00
40622;DHT22;26324;52.040;11.528;2022-12-18T11:52:57;-3275.20;73.70
40622;DHT22;26324;52.040;11.528;2022-12-18T11:55:44;-3275.20;71.40
40622;DHT22;26324;52.040;11.528;2022-12-18T12:09:33;-3275.00;73.00
40622;DHT22;26324;52.040;11.528;2022-12-18T12:20:20;-3275.40;71.40
40622;DHT22;26324;52.040;11.528;2022-12-18T12:23:05;-3275.40;71.10
40622;DHT22;26324;52.040;11.528;2022-12-18T12:28:59;-3274.40;72.90
40622;DHT22;26324;52.040;11.528;2022-12-18T12:39:37;-3275.40;72.90
40622;DHT22;26324;52.040;11.528;2022-12-18T12:42:06;-3276.40;71.50
40622;DHT22;26324;52.040;11.528;2022-12-18T12:44:55;1.00;67.50
40622;DHT22;26324;52.040;11.528;2022-12-18T12:47:32;2.10;62.80
40622;DHT22;26324;52.040;11.528;2022-12-18T12:50:01;1.90;59.90
40622;DHT22;26324;52.040;11.528;2022-12-18T12:52:49;1.50;61.90
40622;DHT22;26324;52.040;11.528;2022-12-18T12:55:22;2.80;58.90
40622;DHT22;26324;52.040;11.528;2022-12-18T12:58:10;3.70;53.90
40622;DHT22;26324;52.040;11.528;2022-12-18T13:01:25;3.80;54.10
40622;DHT22;26324;52.040;11.528;2022-12-18T13:04:27;3.70;53.20
40622;DHT22;26324;52.040;11.528;2022-12-18T13:07:03;3.90;52.60
40622;DHT22;26324;52.040;11.528;2022-12-18T13:09:33;4.00;50.70
40622;DHT22;26324;52.040;11.528;2022-12-18T13:12:11;3.60;52.00
40622;DHT22;26324;52.040;11.528;2022-12-18T13:15:12;3.50;52.60
40622;DHT22;26324;52.040;11.528;2022-12-18T13:17:39;3.50;51.70
40622;DHT22;26324;52.040;11.528;2022-12-18T13:20:11;2.00;54.90
40622;DHT22;26324;52.040;11.528;2022-12-18T13:22:38;0.80;58.90
40622;DHT22;26324;52.040;11.528;2022-12-18T13:25:28;0.50;61.20
40622;DHT22;26324;52.040;11.528;2022-12-18T13:28:13;-3276.40;64.80
40622;DHT22;26324;52.040;11.528;2022-12-18T13:30:51;-3275.80;67.40
40622;DHT22;26324;52.040;11.528;2022-12-18T13:35:52;-3275.60;69.30
40622;DHT22;26324;52.040;11.528;2022-12-18T13:38:39;-3275.20;70.10
40622;DHT22;26324;52.040;11.528;2022-12-18T13:43:51;-3274.40;73.50
40622;DHT22;26324;52.040;11.528;2022-12-18T13:46:29;-3274.20;74.60
40622;DHT22;26324;52.040;11.528;2022-12-18T13:49:22;-3273.70;76.30
40622;DHT22;26324;52.040;11.528;2022-12-18T13:51:50;-3273.40;78.00
40622;DHT22;26324;52.040;11.528;2022-12-18T13:54:35;-3273.20;79.00
40622;DHT22;26324;52.040;11.528;2022-12-18T13:57:04;-3273.00;79.50
40622;DHT22;26324;52.040;11.528;2022-12-18T13:59:38;-3272.90;80.50
40622;DHT22;26324;52.040;11.528;2022-12-18T14:02:16;-3272.70;80.90
40622;DHT22;26324;52.040;11.528;2022-12-18T14:04:45;-3272.50;81.70
40622;DHT22;26324;52.040;11.528;2022-12-18T14:07:18;-3272.50;82.30
40622;DHT22;26324;52.040;11.528;2022-12-18T14:09:50;-3272.40;82.60
40622;DHT22;26324;52.040;11.528;2022-12-18T14:12:35;-3272.40;83.00
40622;DHT22;26324;52.040;11.528;2022-12-18T14:18:02;-3272.20;83.70
40622;DHT22;26324;52.040;11.528;2022-12-18T14:20:30;-3272.20;83.70
40622;DHT22;26324;52.040;11.528;2022-12-18T14:22:57;-3272.20;83.90
40622;DHT22;26324;52.040;11.528;2022-12-18T14:25:25;-3272.10;83.80
40622;DHT22;26324;52.040;11.528;2022-12-18T14:30:36;-3271.90;84.60
40622;DHT22;26324;52.040;11.528;2022-12-18T14:33:02;-3271.80;85.20
40622;DHT22;26324;52.040;11.528;2022-12-18T14:35:28;-3271.70;85.50
40622;DHT22;26324;52.040;11.528;2022-12-18T14:37:59;-3271.70;85.90
40622;DHT22;26324;52.040;11.528;2022-12-18T14:40:32;-3271.60;86.20
40622;DHT22;26324;52.040;11.528;2022-12-18T14:42:58;-3271.70;86.20
40622;DHT22;26324;52.040;11.528;2022-12-18T14:45:33;-3271.70;86.40
40622;DHT22;26324;52.040;11.528;2022-12-18T14:47:59;-3271.70;86.60
40622;DHT22;26324;52.040;11.528;2022-12-18T14:50:25;-3271.60;86.80
40622;DHT22;26324;52.040;11.528;2022-12-18T14:52:51;-3271.60;87.00
40622;DHT22;26324;52.040;11.528;2022-12-18T14:55:19;-3271.60;87.20
40622;DHT22;26324;52.040;11.528;2022-12-18T14:57:45;-3271.60;87.30
40622;DHT22;26324;52.040;11.528;2022-12-18T15:00:17;-3271.60;87.30
40622;DHT22;26324;52.040;11.528;2022-12-18T15:02:55;-3271.60;87.60
40622;DHT22;26324;52.040;11.528;2022-12-18T15:05:29;-3271.60;87.50
40622;DHT22;26324;52.040;11.528;2022-12-18T15:07:58;-3271.60;87.60
40622;DHT22;26324;52.040;11.528;2022-12-18T15:20:57;-3271.50;87.50
40622;DHT22;26324;52.040;11.528;2022-12-18T15:23:45;-3271.60;87.40
40622;DHT22;26324;52.040;11.528;2022-12-18T15:26:14;-3271.60;87.40
40622;DHT22;26324;52.040;11.528;2022-12-18T15:33:42;-3271.50;87.20
40622;DHT22;26324;52.040;11.528;2022-12-18T15:36:14;-3271.50;87.30
40622;DHT22;26324;52.040;11.528;2022-12-18T15:38:40;-3271.50;87.30
40622;DHT22;26324;52.040;11.528;2022-12-18T15:41:12;-3271.50;87.30
40622;DHT22;26324;52.040;11.528;2022-12-18T15:43:38;-3271.50;87.40
40622;DHT22;26324;52.040;11.528;2022-12-18T15:46:06;-3271.50;87.30
40622;DHT22;26324;52.040;11.528;2022-12-18T15:48:34;-3271.40;87.30
40622;DHT22;26324;52.040;11.528;2022-12-18T15:51:00;-3271.40;87.40
40622;DHT22;26324;52.040;11.528;2022-12-18T15:53:30;-3271.40;87.40
40622;DHT22;26324;52.040;11.528;2022-12-18T15:55:57;-3271.40;87.50
40622;DHT22;26324;52.040;11.528;2022-12-18T15:58:41;-3271.40;87.60
40622;DHT22;26324;52.040;11.528;2022-12-18T16:01:09;-3271.40;87.70
40622;DHT22;26324;52.040;11.528;2022-12-18T16:03:35;-3271.40;87.70
40622;DHT22;26324;52.040;11.528;2022-12-18T16:06:00;-3271.40;87.80
40622;DHT22;26324;52.040;11.528;2022-12-18T16:08:28;-3271.30;87.70
40622;DHT22;26324;52.040;11.528;2022-12-18T16:10:55;-3271.30;87.70
40622;DHT22;26324;52.040;11.528;2022-12-18T16:13:20;-3271.30;87.90
40622;DHT22;26324;52.040;11.528;2022-12-18T16:15:46;-3271.30;87.80
40622;DHT22;26324;52.040;11.528;2022-12-18T16:18:12;-3271.30;87.80
40622;DHT22;26324;52.040;11.528;2022-12-18T16:20:38;-3271.30;87.80
40622;DHT22;26324;52.040;11.528;2022-12-18T16:23:04;-3271.30;87.80
40622;DHT22;26324;52.040;11.528;2022-12-18T16:25:29;-3271.30;87.80
40622;DHT22;26324;52.040;11.528;2022-12-18T16:27:56;-3271.30;88.00
40622;DHT22;26324;52.040;11.528;2022-12-18T16:30:24;-3271.30;87.90
40622;DHT22;26324;52.040;11.528;2022-12-18T16:32:51;-3271.30;87.90
40622;DHT22;26324;52.040;11.528;2022-12-18T16:35:17;-3271.30;88.00
40622;DHT22;26324;52.040;11.528;2022-12-18T16:37:43;-3271.30;88.00
40622;DHT22;26324;52.040;11.528;2022-12-18T16:40:11;-3271.20;88.10
40622;DHT22;26324;52.040;11.528;2022-12-18T16:42:39;-3271.30;88.30
40622;DHT22;26324;52.040;11.528;2022-12-18T16:45:06;-3271.30;88.30
40622;DHT22;26324;52.040;11.528;2022-12-18T16:47:33;-3271.40;88.40
40622;DHT22;26324;52.040;11.528;2022-12-18T16:49:59;-3271.30;88.40
40622;DHT22;26324;52.040;11.528;2022-12-18T16:52:25;-3271.40;88.40
40622;DHT22;26324;52.040;11.528;2022-12-18T16:54:50;-3271.40;88.40
40622;DHT22;26324;52.040;11.528;2022-12-18T16:57:18;-3271.40;88.30
40622;DHT22;26324;52.040;11.528;2022-12-18T16:59:44;-3271.40;88.30